Emmett, MI (48022)

6:56 AM EDT on August 28, 2016 (GMT -0400)
capac,mi | | Change Station
Active Advisory: Special Statement

Elev 833 ft 43.03 °N, 82.93 °W | Updated 2 seconds ago

Scattered Clouds
Scattered Clouds
69.4 °F
Feels Like 69.4 °F
N
0.0
Wind Variable Wind from SSW
Gusts 1.0 mph

Today
High -- | Low -- °F
--% Chance of Precip.
Yesterday
High -- | Low -- °F
Precip. -- in
Pressure 30.15 in
Visibility 2.5 miles
Clouds Scattered Clouds 300 ft
Dew Point 69 °F
Humidity 98%
Rainfall 0.00 in
Snow Depth Not available.
6:51 AM 8:11 PM
Waning Crescent, 16% visible
METAR KPHN 281036Z AUTO 00000KT 2 1/2SM BR SCT003 20/20 A3015 RMK AO2
Pressure 30.15 in
Visibility 2.5 miles
Clouds Scattered Clouds 300 ft
Dew Point 69 °F
Humidity 98%
Rainfall 0.00 in
Snow Depth Not available.
6:51 AM 8:11 PM
Waning Crescent, 16% visible
METAR KPHN 281036Z AUTO 00000KT 2 1/2SM BR SCT003 20/20 A3015 RMK AO2

10-Day Weather Forecast

Almanac

Astronomy

Aug. 28, 2016 Rise Set
Actual Time
Civil Twilight
Nautical Twilight
Astronomical Twilight
Moon
Length of Visible Light
Length of Day
Tomorrow will be .
, % of the Moon is Illuminated

Today's Extremes

State Highs State Lows

Community

WunderPhotos

Upload Photos

1,935,541 photos uploaded!

WunderBlog® & News

Nearby

Air Quality

  Air Quality AQ Index Pollutant
Not available.

Snow Depth

Station Depth Elevation

Earthquake Activity

City Distance Mag. Time & Date
Minimum magnitude displayed is 2.5.

Coastal Water Temperatures

Place Temperature

Stations

Nearby Weather Stations

Station Location Temp. Windchill Dew Point Humidity Wind Precip. Elev Updated Type
                   

Watches & Warnings

Special Statement
Issued: 5:07 AM EDT Aug. 28, 2016 – National Weather Service

... Cautious travel is advised for reduced visibility this morning...

Weather...

* patchy dense fog will impact southeastern Michigan during the
   early morning hour.

* Visibilities will improve between 8 am and 9 am.

Impacts...

* patchy dense fog will reduce visibilities to near zero at
   times. Rapid fluctuations of visibility will occur.


Precautionary/preparedness actions...

* patchy dense fog means areal coverage or duration of the
   dense fog will be limited. Motorists are urged to use caution
   and account for variable driving conditions by slowing down
   and allowing extra time.

* Prepare... plan... and stay informed.
   Visit http://go.USA.Gov/rr8


SC